createdAt,value
2023-02-06T00:01:40.890Z,1.30
2023-02-06T00:04:09.009Z,1.30
2023-02-06T00:06:38.406Z,1.30
2023-02-06T00:09:07.373Z,1.40
2023-02-06T00:11:36.158Z,1.40
2023-02-06T00:14:04.430Z,1.30
2023-02-06T00:16:39.444Z,1.40
2023-02-06T00:19:07.572Z,1.40
2023-02-06T00:21:35.754Z,1.40
2023-02-06T00:24:05.621Z,1.40
2023-02-06T00:26:33.853Z,1.40
2023-02-06T00:29:02.065Z,1.30
2023-02-06T00:31:32.845Z,1.30
2023-02-06T00:34:01.499Z,1.30
2023-02-06T00:36:29.687Z,1.30
2023-02-06T00:38:58.510Z,1.20
2023-02-06T00:41:27.913Z,1.20
2023-02-06T00:43:56.411Z,1.20
2023-02-06T00:46:24.756Z,1.20
2023-02-06T00:48:52.865Z,1.10
2023-02-06T00:51:20.895Z,1.00
2023-02-06T00:53:51.047Z,0.90
2023-02-06T00:56:20.339Z,0.80
2023-02-06T00:58:50.099Z,0.70
2023-02-06T01:01:19.085Z,0.60
2023-02-06T01:03:47.604Z,0.60
2023-02-06T01:06:15.998Z,0.50
2023-02-06T01:08:44.212Z,0.40
2023-02-06T01:11:13.704Z,0.30
2023-02-06T01:13:42.850Z,0.30
2023-02-06T01:16:14.706Z,0.30
2023-02-06T01:18:42.851Z,0.20
2023-02-06T01:21:11.793Z,0.10
2023-02-06T01:23:40.677Z,0.10
2023-02-06T01:26:10.256Z,0.00
2023-02-06T01:28:38.959Z,0.00
2023-02-06T01:31:13.156Z,0.00
2023-02-06T01:33:41.952Z,0.00
2023-02-06T01:36:10.309Z,0.10
2023-02-06T01:38:38.528Z,0.00
2023-02-06T01:41:07.715Z,0.00
2023-02-06T01:43:37.480Z,-0.10
2023-02-06T01:46:05.928Z,-0.10
2023-02-06T01:48:39.814Z,-0.20
2023-02-06T01:51:11.009Z,-0.20
2023-02-06T01:53:41.391Z,-0.20
2023-02-06T01:56:10.639Z,-0.30
2023-02-06T01:58:43.325Z,-0.30
2023-02-06T02:01:12.254Z,-0.30
2023-02-06T02:03:45.133Z,-0.30
2023-02-06T02:06:16.275Z,-0.40
2023-02-06T02:08:46.775Z,-0.40
2023-02-06T02:11:19.499Z,-0.50
2023-02-06T02:13:47.975Z,-0.50
2023-02-06T02:16:22.966Z,-0.50
2023-02-06T02:19:06.684Z,-0.50
2023-02-06T02:22:11.902Z,-0.60
2023-02-06T02:25:00.723Z,-0.60
2023-02-06T02:27:46.112Z,-0.60
2023-02-06T02:30:40.465Z,-0.60
2023-02-06T02:33:37.803Z,-0.70
2023-02-06T02:36:14.224Z,-0.70
2023-02-06T02:38:54.606Z,-0.70
2023-02-06T02:41:28.838Z,-0.70
2023-02-06T02:44:03.079Z,-0.80
2023-02-06T02:46:36.101Z,-0.80
2023-02-06T02:49:07.044Z,-0.80
2023-02-06T02:51:37.655Z,-0.80
2023-02-06T02:54:05.882Z,-0.80
2023-02-06T02:56:34.596Z,-0.80
2023-02-06T02:59:06.640Z,-0.80
2023-02-06T03:01:42.017Z,-0.80
2023-02-06T03:04:13.850Z,-0.90
2023-02-06T03:06:58.377Z,-0.90
2023-02-06T03:09:38.783Z,-0.90
2023-02-06T03:12:13.065Z,-1.00
2023-02-06T03:14:46.843Z,-1.00
2023-02-06T03:17:20.265Z,-1.00
2023-02-06T03:19:53.733Z,-1.00
2023-02-06T03:22:24.494Z,-1.00
2023-02-06T03:24:54.011Z,-1.00
2023-02-06T03:27:23.757Z,-1.10
2023-02-06T03:29:53.901Z,-1.10
2023-02-06T03:32:25.892Z,-1.20
2023-02-06T03:34:59.528Z,-1.20
2023-02-06T03:37:29.805Z,-1.20
2023-02-06T03:40:00.274Z,-1.20
2023-02-06T03:42:30.920Z,-1.30
2023-02-06T03:45:02.721Z,-1.30
2023-02-06T03:47:32.416Z,-1.30
2023-02-06T03:50:02.099Z,-1.40
2023-02-06T03:52:37.019Z,-1.40
2023-02-06T03:55:09.499Z,-1.40
2023-02-06T03:57:38.874Z,-1.40
2023-02-06T04:00:07.826Z,-1.40
2023-02-06T04:02:37.802Z,-1.30
2023-02-06T04:05:06.498Z,-1.40
2023-02-06T04:07:37.042Z,-1.50
2023-02-06T04:10:05.482Z,-1.60
2023-02-06T04:12:33.693Z,-1.60
2023-02-06T04:15:02.007Z,-1.60
2023-02-06T04:17:46.348Z,-1.60
2023-02-06T04:20:18.138Z,-1.60
2023-02-06T04:22:47.655Z,-1.60
2023-02-06T04:25:16.002Z,-1.60
2023-02-06T04:27:44.387Z,-1.60
2023-02-06T04:30:13.753Z,-1.70
2023-02-06T04:32:41.906Z,-1.70
2023-02-06T04:35:10.145Z,-1.70
2023-02-06T04:37:38.670Z,-1.70
2023-02-06T04:40:08.999Z,-1.80
2023-02-06T04:42:37.101Z,-1.80
2023-02-06T04:45:05.521Z,-1.80
2023-02-06T04:47:33.581Z,-1.90
2023-02-06T04:50:01.644Z,-1.90
2023-02-06T04:52:29.667Z,-1.90
2023-02-06T04:54:57.811Z,-1.90
2023-02-06T04:57:27.906Z,-1.90
2023-02-06T04:59:55.922Z,-2.00
2023-02-06T05:02:24.040Z,-2.00
2023-02-06T05:04:52.218Z,-2.00
2023-02-06T05:07:20.389Z,-1.90
2023-02-06T05:09:48.494Z,-1.90
2023-02-06T05:12:16.587Z,-1.90
2023-02-06T05:14:45.929Z,-1.90
2023-02-06T05:17:13.952Z,-1.90
2023-02-06T05:19:42.013Z,-1.80
2023-02-06T05:22:10.267Z,-1.60
2023-02-06T05:24:38.374Z,-1.40
2023-02-06T05:27:06.606Z,-1.10
2023-02-06T05:29:34.736Z,-1.00
2023-02-06T05:32:04.262Z,-0.90
2023-02-06T05:34:32.455Z,-0.70
2023-02-06T05:37:00.500Z,-0.70
2023-02-06T05:39:28.769Z,-0.60
2023-02-06T05:41:56.884Z,-0.50
2023-02-06T05:44:25.038Z,-0.40
2023-02-06T05:46:53.141Z,-0.20
2023-02-06T05:49:22.747Z,-0.20
2023-02-06T05:51:50.775Z,-0.10
2023-02-06T05:54:19.109Z,-0.10
2023-02-06T05:56:47.117Z,0.00
2023-02-06T05:59:15.330Z,0.00
2023-02-06T06:01:43.615Z,0.00
2023-02-06T06:04:11.843Z,0.10
2023-02-06T06:06:41.778Z,0.10
2023-02-06T06:09:09.892Z,0.10
2023-02-06T06:11:37.933Z,0.10
2023-02-06T06:14:06.145Z,0.20
2023-02-06T06:16:34.749Z,0.20
2023-02-06T06:19:02.960Z,0.20
2023-02-06T06:21:31.347Z,0.30
2023-02-06T06:24:00.749Z,0.30
2023-02-06T06:26:29.191Z,0.30
2023-02-06T06:28:58.140Z,0.30
2023-02-06T06:31:26.181Z,0.30
2023-02-06T06:33:54.265Z,0.40
2023-02-06T06:36:22.302Z,0.40
2023-02-06T06:38:50.339Z,0.40
2023-02-06T06:41:19.885Z,0.50
2023-02-06T06:43:50.049Z,0.50
2023-02-06T06:46:19.765Z,0.50
2023-02-06T06:48:47.777Z,0.50
2023-02-06T06:51:16.021Z,0.50
2023-02-06T06:53:44.005Z,0.50
2023-02-06T06:56:14.517Z,0.50
2023-02-06T06:58:44.026Z,0.50
2023-02-06T07:01:12.222Z,0.50
2023-02-06T07:03:44.116Z,0.50
2023-02-06T07:06:12.844Z,0.50
2023-02-06T07:08:42.013Z,0.50
2023-02-06T07:11:10.408Z,0.50
2023-02-06T07:13:38.920Z,0.60
2023-02-06T07:16:09.454Z,0.60
2023-02-06T07:18:38.494Z,0.60
2023-02-06T07:21:08.748Z,0.60
2023-02-06T07:23:38.318Z,0.60
2023-02-06T07:26:06.996Z,0.60
2023-02-06T07:28:35.624Z,0.70
2023-02-06T07:31:05.863Z,0.70
2023-02-06T07:33:36.102Z,0.70
2023-02-06T07:36:04.441Z,0.70
2023-02-06T07:38:32.711Z,0.70
2023-02-06T07:41:02.770Z,0.70
2023-02-06T07:43:31.528Z,0.70
2023-02-06T07:46:01.344Z,0.80
2023-02-06T07:48:29.621Z,0.80
2023-02-06T07:51:04.805Z,0.80
2023-02-06T07:53:32.884Z,0.80
2023-02-06T07:56:01.291Z,0.80
2023-02-06T07:58:29.490Z,0.80
2023-02-06T08:01:00.734Z,0.80
2023-02-06T08:03:28.822Z,0.80
2023-02-06T08:05:58.208Z,0.80
2023-02-06T08:08:26.626Z,0.80
2023-02-06T08:10:54.770Z,0.90
2023-02-06T08:13:22.805Z,0.90
2023-02-06T08:15:50.791Z,1.00
2023-02-06T08:18:18.841Z,1.00
2023-02-06T08:20:46.857Z,1.00
2023-02-06T08:23:16.365Z,1.10
2023-02-06T08:25:44.416Z,1.10
2023-02-06T08:28:14.916Z,1.10
2023-02-06T08:30:43.282Z,1.20
2023-02-06T08:33:11.314Z,1.20
2023-02-06T08:35:39.445Z,1.20
2023-02-06T08:38:07.501Z,1.30
2023-02-06T08:40:36.922Z,1.30
2023-02-06T08:43:04.977Z,1.30
2023-02-06T08:45:33.311Z,1.40
2023-02-06T08:48:01.537Z,1.40
2023-02-06T08:50:29.631Z,1.50
2023-02-06T08:52:57.713Z,1.50
2023-02-06T08:55:25.928Z,1.60
2023-02-06T08:57:55.402Z,1.60
2023-02-06T09:00:23.788Z,1.70
2023-02-06T09:02:53.799Z,1.70
2023-02-06T09:05:22.359Z,1.80
2023-02-06T09:07:50.686Z,1.90
2023-02-06T09:10:27.021Z,2.00
2023-02-06T09:12:57.659Z,2.00
2023-02-06T09:15:25.768Z,2.10
2023-02-06T09:17:54.027Z,2.10
2023-02-06T09:20:22.555Z,2.20
2023-02-06T09:22:50.659Z,2.30
2023-02-06T09:25:18.913Z,2.40
2023-02-06T09:27:47.215Z,2.40
2023-02-06T09:30:17.027Z,2.50
2023-02-06T09:32:45.322Z,2.60
2023-02-06T09:35:13.353Z,2.60
2023-02-06T09:37:41.556Z,2.60
2023-02-06T09:40:13.316Z,2.60
2023-02-06T09:42:42.816Z,2.70
2023-02-06T09:45:16.091Z,2.70
2023-02-06T09:47:49.225Z,2.80
2023-02-06T09:50:25.133Z,2.90
2023-02-06T09:53:04.502Z,2.90
2023-02-06T09:55:38.788Z,2.90
2023-02-06T09:58:19.229Z,2.90
2023-02-06T10:00:53.390Z,2.90
2023-02-06T10:03:40.556Z,2.80
2023-02-06T10:06:19.821Z,2.80
2023-02-06T10:08:54.969Z,2.90
2023-02-06T10:11:34.785Z,2.90
2023-02-06T10:14:06.933Z,2.90
2023-02-06T10:16:41.899Z,3.00
2023-02-06T10:19:18.916Z,2.90
2023-02-06T10:21:52.916Z,2.80
2023-02-06T10:24:31.574Z,2.90
2023-02-06T10:27:04.135Z,2.90
2023-02-06T10:29:35.076Z,3.00
2023-02-06T10:32:13.366Z,3.10
2023-02-06T10:35:06.354Z,3.30
2023-02-06T10:38:11.474Z,3.30
2023-02-06T10:40:48.576Z,3.40
2023-02-06T10:43:24.207Z,3.40
2023-02-06T10:46:01.171Z,3.50
2023-02-06T10:48:35.381Z,3.60
2023-02-06T10:51:17.298Z,3.60
2023-02-06T10:53:51.972Z,3.70
2023-02-06T10:56:24.982Z,3.70
2023-02-06T10:58:57.258Z,3.80
2023-02-06T11:01:27.783Z,3.80
2023-02-06T11:04:01.095Z,3.90
2023-02-06T11:06:31.791Z,3.90
2023-02-06T11:09:00.173Z,4.00
2023-02-06T11:11:30.717Z,4.00
2023-02-06T11:14:05.548Z,4.10
2023-02-06T11:16:37.502Z,4.10
2023-02-06T11:19:16.745Z,4.10
2023-02-06T11:21:56.318Z,4.10
2023-02-06T11:24:26.213Z,4.10
2023-02-06T11:26:57.639Z,4.10
2023-02-06T11:29:29.035Z,4.20
2023-02-06T11:31:59.865Z,4.20
2023-02-06T11:34:30.724Z,4.20
2023-02-06T11:37:02.837Z,4.20
2023-02-06T11:39:33.065Z,4.20
2023-02-06T11:42:03.622Z,4.10
2023-02-06T11:44:37.787Z,4.10
2023-02-06T11:47:32.951Z,4.10
2023-02-06T11:50:23.384Z,4.20
2023-02-06T11:53:02.446Z,4.20
2023-02-06T11:55:34.298Z,4.30
2023-02-06T11:58:18.549Z,4.30
2023-02-06T12:00:58.476Z,4.30
2023-02-06T12:03:33.713Z,4.40
2023-02-06T12:06:08.266Z,4.40
2023-02-06T12:08:49.185Z,4.50
2023-02-06T12:11:24.063Z,4.60
2023-02-06T12:13:55.704Z,4.60
2023-02-06T12:16:25.214Z,4.80
2023-02-06T12:18:57.821Z,4.80
2023-02-06T12:21:42.682Z,4.80
2023-02-06T12:24:29.016Z,4.90
2023-02-06T12:26:59.717Z,4.90
2023-02-06T12:29:33.647Z,5.00
2023-02-06T12:32:09.266Z,5.10
2023-02-06T12:34:50.341Z,5.20
2023-02-06T12:37:22.882Z,5.20
2023-02-06T12:39:53.366Z,5.20
2023-02-06T12:42:39.420Z,5.20
2023-02-06T12:45:18.015Z,5.20
2023-02-06T12:47:51.950Z,5.30
2023-02-06T12:50:24.355Z,5.30
2023-02-06T12:52:57.591Z,5.30
2023-02-06T12:55:30.729Z,5.30
2023-02-06T12:57:59.477Z,5.40
2023-02-06T13:00:55.335Z,5.40
2023-02-06T13:03:32.211Z,5.30
2023-02-06T13:06:13.480Z,5.30
2023-02-06T13:08:45.173Z,5.30
2023-02-06T13:11:27.782Z,5.30
2023-02-06T13:14:08.493Z,5.40
2023-02-06T13:16:50.643Z,5.40
2023-02-06T13:19:28.024Z,5.40
2023-02-06T13:22:24.508Z,5.40
2023-02-06T13:24:52.841Z,5.50
2023-02-06T13:27:26.669Z,5.60
2023-02-06T13:29:54.842Z,5.60
2023-02-06T13:32:43.062Z,5.70
2023-02-06T13:35:23.008Z,5.80
2023-02-06T13:38:10.678Z,5.80
2023-02-06T13:40:38.893Z,5.80
2023-02-06T13:43:18.544Z,5.90
2023-02-06T13:45:50.961Z,5.90
2023-02-06T13:48:46.677Z,5.90
2023-02-06T13:51:35.791Z,5.90
2023-02-06T13:54:36.797Z,6.10
2023-02-06T13:57:52.247Z,6.20
2023-02-06T14:00:25.032Z,6.40
2023-02-06T14:02:56.756Z,6.50
2023-02-06T14:05:42.400Z,6.60
2023-02-06T14:08:20.556Z,6.70
2023-02-06T14:11:14.453Z,6.80
2023-02-06T14:13:57.959Z,6.70
2023-02-06T14:16:39.881Z,6.70
2023-02-06T14:19:18.962Z,6.50
2023-02-06T14:21:54.601Z,6.40
2023-02-06T14:24:35.489Z,6.30
2023-02-06T14:27:23.599Z,6.10
2023-02-06T14:30:03.844Z,5.90
2023-02-06T14:32:48.554Z,5.90
2023-02-06T14:35:32.030Z,5.80
2023-02-06T14:38:18.612Z,5.70
2023-02-06T14:40:52.285Z,5.70
2023-02-06T14:43:24.029Z,5.70
2023-02-06T14:46:06.245Z,5.60
2023-02-06T14:48:40.225Z,5.50
2023-02-06T14:51:19.212Z,5.40
2023-02-06T14:53:54.286Z,5.40
2023-02-06T14:56:28.280Z,5.30
2023-02-06T14:58:56.511Z,5.20
2023-02-06T15:01:27.679Z,5.20
2023-02-06T15:04:12.473Z,5.10
2023-02-06T15:06:42.575Z,5.00
2023-02-06T15:09:25.374Z,5.00
2023-02-06T15:11:56.452Z,4.90
2023-02-06T15:14:26.922Z,4.90
2023-02-06T15:16:59.326Z,4.80
2023-02-06T15:19:31.100Z,4.80
2023-02-06T15:22:02.280Z,4.70
2023-02-06T15:24:55.990Z,4.70
2023-02-06T15:27:29.107Z,4.60
2023-02-06T15:29:58.030Z,4.60
2023-02-06T15:32:32.132Z,4.50
2023-02-06T15:35:03.138Z,4.50
2023-02-06T15:37:33.465Z,4.50
2023-02-06T15:40:07.855Z,4.50
2023-02-06T15:42:40.775Z,4.50
2023-02-06T15:45:19.022Z,4.50
2023-02-06T15:47:47.563Z,4.40
2023-02-06T15:50:20.131Z,4.40
2023-02-06T15:52:48.611Z,4.40
2023-02-06T15:55:30.572Z,4.30
2023-02-06T15:58:00.910Z,4.30
2023-02-06T16:00:32.415Z,4.20
2023-02-06T16:03:03.206Z,4.20
2023-02-06T16:05:35.193Z,4.10
2023-02-06T16:08:05.102Z,4.00
2023-02-06T16:10:37.312Z,4.00
2023-02-06T16:13:12.046Z,3.90
2023-02-06T16:15:41.814Z,3.80
2023-02-06T16:18:26.856Z,3.80
2023-02-06T16:21:13.319Z,3.70
2023-02-06T16:23:46.456Z,3.60
2023-02-06T16:26:18.402Z,3.50
2023-02-06T16:28:57.999Z,3.50
2023-02-06T16:31:27.587Z,3.40
2023-02-06T16:33:56.838Z,3.30
2023-02-06T16:36:26.332Z,3.30
2023-02-06T16:39:03.729Z,3.20
2023-02-06T16:41:34.966Z,3.10
2023-02-06T16:44:04.250Z,3.00
2023-02-06T16:46:32.366Z,2.90
2023-02-06T16:49:01.080Z,2.80
2023-02-06T16:51:32.044Z,2.80
2023-02-06T16:54:00.195Z,2.70
2023-02-06T16:56:28.363Z,2.60
2023-02-06T16:58:56.511Z,2.50
2023-02-06T17:01:26.562Z,2.50
2023-02-06T17:03:55.307Z,2.40
2023-02-06T17:06:25.221Z,2.40
2023-02-06T17:08:58.402Z,2.30
2023-02-06T17:11:27.976Z,2.20
2023-02-06T17:13:56.169Z,2.20
2023-02-06T17:16:25.918Z,2.10
2023-02-06T17:18:54.461Z,2.10
2023-02-06T17:21:24.024Z,2.00
2023-02-06T17:23:54.999Z,2.00
2023-02-06T17:26:24.660Z,1.90
2023-02-06T17:28:53.232Z,1.90
2023-02-06T17:31:21.837Z,1.80
2023-02-06T17:33:50.267Z,1.70
2023-02-06T17:36:22.398Z,1.70
2023-02-06T17:38:50.554Z,1.60
2023-02-06T17:41:20.142Z,1.50
2023-02-06T17:43:48.217Z,1.50
2023-02-06T17:46:16.319Z,1.40
2023-02-06T17:48:44.607Z,1.30
2023-02-06T17:51:13.036Z,1.20
2023-02-06T17:53:41.257Z,1.20
2023-02-06T17:56:12.757Z,1.20
2023-02-06T17:58:43.782Z,1.10
2023-02-06T18:01:12.799Z,1.20
2023-02-06T18:03:41.355Z,1.10
2023-02-06T18:06:10.609Z,1.00
2023-02-06T18:08:39.206Z,1.00
2023-02-06T18:11:11.549Z,0.90
2023-02-06T18:13:40.212Z,0.80
2023-02-06T18:16:16.257Z,0.80
2023-02-06T18:18:44.508Z,0.90
2023-02-06T18:21:13.899Z,0.90
2023-02-06T18:23:41.983Z,0.80
2023-02-06T18:26:11.302Z,0.80
2023-02-06T18:28:40.728Z,0.70
2023-02-06T18:31:26.220Z,0.70
2023-02-06T18:33:55.146Z,0.70
2023-02-06T18:36:23.939Z,0.60
2023-02-06T18:38:52.126Z,0.70
2023-02-06T18:41:37.610Z,0.60
2023-02-06T18:44:07.973Z,0.60
2023-02-06T18:46:38.169Z,0.60
2023-02-06T18:49:07.443Z,0.60
2023-02-06T18:51:36.211Z,0.60
2023-02-06T18:54:05.473Z,0.50
2023-02-06T18:56:33.790Z,0.50
2023-02-06T18:59:04.020Z,0.50
2023-02-06T19:01:32.931Z,0.50
2023-02-06T19:04:02.445Z,0.40
2023-02-06T19:06:35.543Z,0.40
2023-02-06T19:09:07.129Z,0.40
2023-02-06T19:11:35.633Z,0.40
2023-02-06T19:14:04.517Z,0.30
2023-02-06T19:16:34.500Z,0.30
2023-02-06T19:19:04.165Z,0.30
2023-02-06T19:21:32.748Z,0.30
2023-02-06T19:24:01.928Z,0.30
2023-02-06T19:26:30.748Z,0.30
2023-02-06T19:28:59.482Z,0.40
2023-02-06T19:31:27.729Z,0.40
2023-02-06T19:33:59.390Z,0.50
2023-02-06T19:36:30.525Z,0.50
2023-02-06T19:39:00.745Z,0.50
2023-02-06T19:41:32.029Z,0.40
2023-02-06T19:44:04.046Z,0.40
2023-02-06T19:46:32.351Z,0.30
2023-02-06T19:49:00.804Z,0.20
2023-02-06T19:51:32.299Z,0.10
2023-02-06T19:54:01.350Z,0.10
2023-02-06T19:56:34.517Z,0.00
2023-02-06T19:59:05.528Z,0.00
2023-02-06T20:01:35.592Z,-0.10
2023-02-06T20:04:04.811Z,-0.20
2023-02-06T20:06:35.196Z,-0.20
2023-02-06T20:09:04.846Z,-0.30
2023-02-06T20:11:34.610Z,-0.30
2023-02-06T20:14:03.932Z,-0.40
2023-02-06T20:16:34.335Z,-0.50
2023-02-06T20:19:07.760Z,-0.50
2023-02-06T20:21:39.593Z,-0.50
2023-02-06T20:24:14.197Z,-0.60
2023-02-06T20:26:43.709Z,-0.60
2023-02-06T20:29:20.390Z,-0.70
2023-02-06T20:31:48.975Z,-0.80
2023-02-06T20:34:17.484Z,-0.80
2023-02-06T20:36:47.660Z,-0.90
2023-02-06T20:39:16.709Z,-0.90
2023-02-06T20:41:45.651Z,-1.00
2023-02-06T20:44:15.241Z,-1.00
2023-02-06T20:46:44.283Z,-1.10
2023-02-06T20:49:17.018Z,-1.20
2023-02-06T20:51:46.902Z,-1.20
2023-02-06T20:54:15.053Z,-1.30
2023-02-06T20:56:43.698Z,-1.30
2023-02-06T20:59:14.579Z,-1.40
2023-02-06T21:01:43.606Z,-1.40
2023-02-06T21:04:13.545Z,-1.50
2023-02-06T21:06:42.414Z,-1.50
2023-02-06T21:09:12.259Z,-1.50
2023-02-06T21:11:42.600Z,-1.50
2023-02-06T21:14:11.145Z,-1.60
2023-02-06T21:16:40.556Z,-1.60
2023-02-06T21:19:10.488Z,-1.60
2023-02-06T21:21:39.105Z,-1.70
2023-02-06T21:24:08.703Z,-1.70
2023-02-06T21:26:39.020Z,-1.70
2023-02-06T21:29:07.770Z,-1.80
2023-02-06T21:31:38.845Z,-1.80
2023-02-06T21:34:09.730Z,-1.90
2023-02-06T21:36:39.230Z,-1.90
2023-02-06T21:39:08.021Z,-1.80
2023-02-06T21:41:38.016Z,-1.80
2023-02-06T21:44:06.481Z,-1.90
2023-02-06T21:46:34.795Z,-1.90
2023-02-06T21:49:02.952Z,-1.90
2023-02-06T21:51:31.465Z,-2.00
2023-02-06T21:53:59.628Z,-2.00
2023-02-06T21:56:29.351Z,-2.10
2023-02-06T21:58:59.157Z,-2.10
2023-02-06T22:01:28.995Z,-2.10
2023-02-06T22:03:58.173Z,-2.10
2023-02-06T22:06:26.620Z,-2.10
2023-02-06T22:08:56.819Z,-2.10
2023-02-06T22:11:28.500Z,-2.20
2023-02-06T22:14:01.408Z,-2.20
2023-02-06T22:16:33.047Z,-2.30
2023-02-06T22:19:01.784Z,-2.30
2023-02-06T22:21:31.700Z,-2.30
2023-02-06T22:24:01.881Z,-2.40
2023-02-06T22:26:31.149Z,-2.50
2023-02-06T22:29:01.327Z,-2.40
2023-02-06T22:31:32.501Z,-2.30
2023-02-06T22:34:02.250Z,-2.30
2023-02-06T22:36:32.342Z,-2.30
2023-02-06T22:39:03.425Z,-2.40
2023-02-06T22:41:32.097Z,-2.50
2023-02-06T22:44:01.564Z,-2.50
2023-02-06T22:46:31.909Z,-2.60
2023-02-06T22:49:00.285Z,-2.60
2023-02-06T22:51:29.161Z,-2.70
2023-02-06T22:53:57.601Z,-2.70
2023-02-06T22:56:37.257Z,-2.70
2023-02-06T22:59:10.332Z,-2.80
2023-02-06T23:01:40.992Z,-2.70
2023-02-06T23:04:12.488Z,-2.70
2023-02-06T23:06:40.915Z,-2.70
2023-02-06T23:09:10.150Z,-2.80
2023-02-06T23:11:38.249Z,-2.80
2023-02-06T23:14:08.185Z,-2.80
2023-02-06T23:16:37.434Z,-2.80
2023-02-06T23:19:07.552Z,-2.80
2023-02-06T23:21:38.485Z,-2.90
2023-02-06T23:24:07.964Z,-2.90
2023-02-06T23:26:37.087Z,-2.90
2023-02-06T23:29:08.737Z,-3.00
2023-02-06T23:31:38.997Z,-3.00
2023-02-06T23:34:07.498Z,-3.10
2023-02-06T23:36:35.982Z,-3.10
2023-02-06T23:39:06.430Z,-3.10
2023-02-06T23:41:35.365Z,-3.10
2023-02-06T23:44:07.010Z,-3.10
2023-02-06T23:46:38.687Z,-3.10
2023-02-06T23:49:07.758Z,-3.10
2023-02-06T23:51:36.602Z,-3.20
2023-02-06T23:54:05.588Z,-3.30
2023-02-06T23:56:34.382Z,-3.20
2023-02-06T23:59:04.037Z,-3.10
